METAR Data
IDs: Format: Raw Decoded Include TAF

Data at: 0123 UTC 01 Mar 2021

KCBG 010115Z AUTO 27007G15KT 10SM CLR M06/M13 A3000 RMK AO2